createdAt,value
2018-09-13T00:00:51.907Z,1020.08
2018-09-13T00:01:51.876Z,1020.16
2018-09-13T00:02:51.850Z,1020.10
2018-09-13T00:03:51.825Z,1020.06
2018-09-13T00:04:51.798Z,1020.07
2018-09-13T00:05:51.830Z,1020.07
2018-09-13T00:06:51.745Z,1020.09
2018-09-13T00:07:51.725Z,1020.08
2018-09-13T00:08:51.692Z,1020.02
2018-09-13T00:09:51.664Z,1020.02
2018-09-13T00:10:51.638Z,1019.97
2018-09-13T00:11:51.614Z,1019.98
2018-09-13T00:12:51.585Z,1019.96
2018-09-13T00:13:51.559Z,1019.95
2018-09-13T00:14:51.532Z,1019.96
2018-09-13T00:15:51.513Z,1019.99
2018-09-13T00:16:51.479Z,1020.04
2018-09-13T00:17:51.451Z,1019.99
2018-09-13T00:18:51.428Z,1020.03
2018-09-13T00:19:51.396Z,1019.96
2018-09-13T00:20:51.380Z,1019.96
2018-09-13T00:21:51.342Z,1019.94
2018-09-13T00:22:51.316Z,1019.90
2018-09-13T00:23:51.291Z,1019.89
2018-09-13T00:24:51.265Z,1019.87
2018-09-13T00:25:51.237Z,1019.89
2018-09-13T00:26:51.209Z,1019.87
2018-09-13T00:27:51.182Z,1019.84
2018-09-13T00:28:51.159Z,1019.84
2018-09-13T00:29:51.129Z,1019.80
2018-09-13T00:30:51.103Z,1019.81
2018-09-13T00:31:51.077Z,1019.76
2018-09-13T00:32:51.054Z,1019.78
2018-09-13T00:33:51.021Z,1019.83
2018-09-13T00:34:50.996Z,1019.81
2018-09-13T00:35:50.969Z,1019.83
2018-09-13T00:36:50.942Z,1019.84
2018-09-13T00:37:50.915Z,1019.85
2018-09-13T00:38:50.888Z,1019.84
2018-09-13T00:39:50.862Z,1019.83
2018-09-13T00:40:50.835Z,1019.85
2018-09-13T00:41:50.810Z,1019.83
2018-09-13T00:42:50.784Z,1019.80
2018-09-13T00:43:50.758Z,1019.78
2018-09-13T00:44:50.729Z,1019.77
2018-09-13T00:45:50.706Z,1019.75
2018-09-13T00:46:50.676Z,1019.77
2018-09-13T00:47:50.648Z,1019.75
2018-09-13T00:48:50.622Z,1019.73
2018-09-13T00:49:50.594Z,1019.76
2018-09-13T00:50:50.569Z,1019.74
2018-09-13T00:51:50.541Z,1019.72
2018-09-13T00:52:50.520Z,1019.71
2018-09-13T00:53:50.487Z,1019.68
2018-09-13T00:54:50.462Z,1019.69
2018-09-13T00:55:50.434Z,1019.68
2018-09-13T00:56:50.406Z,1019.70
2018-09-13T00:57:50.383Z,1019.74
2018-09-13T00:58:50.354Z,1019.74
2018-09-13T00:59:50.327Z,1019.75
2018-09-13T01:00:50.300Z,1019.70
2018-09-13T01:01:50.273Z,1019.76
2018-09-13T01:02:50.246Z,1019.75
2018-09-13T01:03:50.219Z,1019.76
2018-09-13T01:04:50.193Z,1019.71
2018-09-13T01:05:50.167Z,1019.72
2018-09-13T01:06:50.139Z,1019.72
2018-09-13T01:07:50.114Z,1019.71
2018-09-13T01:08:50.086Z,1019.74
2018-09-13T01:09:50.058Z,1019.72
2018-09-13T01:10:50.035Z,1019.72
2018-09-13T01:11:50.005Z,1019.73
2018-09-13T01:12:49.979Z,1019.68
2018-09-13T01:13:49.951Z,1019.72
2018-09-13T01:14:49.924Z,1019.67
2018-09-13T01:15:49.899Z,1019.68
2018-09-13T01:16:49.882Z,1019.72
2018-09-13T01:17:49.847Z,1019.67
2018-09-13T01:18:49.829Z,1019.65
2018-09-13T01:19:49.840Z,1019.63
2018-09-13T01:20:49.765Z,1019.61
2018-09-13T01:21:49.737Z,1019.58
2018-09-13T01:22:49.709Z,1019.58
2018-09-13T01:23:49.688Z,1019.52
2018-09-13T01:24:49.658Z,1019.55
2018-09-13T01:25:49.631Z,1019.58
2018-09-13T01:26:49.605Z,1019.55
2018-09-13T01:27:49.577Z,1019.60
2018-09-13T01:28:49.551Z,1019.61
2018-09-13T01:29:49.523Z,1019.62
2018-09-13T01:30:49.504Z,1019.60
2018-09-13T01:31:49.474Z,1019.59
2018-09-13T01:32:49.443Z,1019.58
2018-09-13T01:33:49.418Z,1019.53
2018-09-13T01:34:49.390Z,1019.53
2018-09-13T01:35:49.365Z,1019.55
2018-09-13T01:36:49.344Z,1019.55
2018-09-13T01:37:49.315Z,1019.55
2018-09-13T01:38:49.290Z,1019.56
2018-09-13T01:39:49.258Z,1019.57
2018-09-13T01:40:49.532Z,1019.54
2018-09-13T01:41:49.201Z,1019.58
2018-09-13T01:42:49.175Z,1019.53
2018-09-13T01:43:49.149Z,1019.56
2018-09-13T01:44:49.123Z,1019.53
2018-09-13T01:45:49.095Z,1019.54
2018-09-13T01:46:49.067Z,1019.52
2018-09-13T01:47:49.043Z,1019.55
2018-09-13T01:48:49.017Z,1019.50
2018-09-13T01:49:48.988Z,1019.48
2018-09-13T01:50:48.963Z,1019.47
2018-09-13T01:51:48.936Z,1019.50
2018-09-13T01:52:48.910Z,1019.48
2018-09-13T01:53:48.883Z,1019.49
2018-09-13T01:54:48.854Z,1019.43
2018-09-13T01:55:48.826Z,1019.46
2018-09-13T01:56:48.803Z,1019.44
2018-09-13T01:57:48.773Z,1019.44
2018-09-13T01:58:48.746Z,1019.44
2018-09-13T01:59:48.719Z,1019.43
2018-09-13T02:00:48.693Z,1019.45
2018-09-13T02:01:48.668Z,1019.45
2018-09-13T02:02:48.639Z,1019.46
2018-09-13T02:03:48.913Z,1019.47
2018-09-13T02:04:48.587Z,1019.46
2018-09-13T02:05:48.562Z,1019.47
2018-09-13T02:06:48.531Z,1019.45
2018-09-13T02:07:48.505Z,1019.45
2018-09-13T02:08:48.478Z,1019.47
2018-09-13T02:09:48.459Z,1019.45
2018-09-13T02:10:48.424Z,1019.47
2018-09-13T02:11:48.399Z,1019.46
2018-09-13T02:12:48.371Z,1019.48
2018-09-13T02:13:48.343Z,1019.54
2018-09-13T02:14:48.321Z,1019.51
2018-09-13T02:15:48.292Z,1019.45
2018-09-13T02:16:48.263Z,1019.47
2018-09-13T02:17:48.235Z,1019.43
2018-09-13T02:18:48.209Z,1019.45
2018-09-13T02:19:48.182Z,1019.48
2018-09-13T02:20:48.165Z,1019.48
2018-09-13T02:21:48.129Z,1019.52
2018-09-13T02:22:48.103Z,1019.52
2018-09-13T02:23:48.075Z,1019.52
2018-09-13T02:24:48.050Z,1019.52
2018-09-13T02:25:48.024Z,1019.51
2018-09-13T02:26:47.994Z,1019.55
2018-09-13T02:27:47.975Z,1019.51
2018-09-13T02:28:47.941Z,1019.56
2018-09-13T02:29:47.916Z,1019.52
2018-09-13T02:30:47.886Z,1019.52
2018-09-13T02:31:47.861Z,1019.48
2018-09-13T02:32:47.835Z,1019.49
2018-09-13T02:33:47.806Z,1019.55
2018-09-13T02:34:47.780Z,1019.50
2018-09-13T02:35:47.752Z,1019.49
2018-09-13T02:36:47.726Z,1019.46
2018-09-13T02:37:47.706Z,1019.48
2018-09-13T02:38:47.672Z,1019.47
2018-09-13T02:39:47.647Z,1019.48
2018-09-13T02:40:47.619Z,1019.45
2018-09-13T02:41:47.594Z,1019.46
2018-09-13T02:42:47.566Z,1019.47
2018-09-13T02:43:47.539Z,1019.48
2018-09-13T02:44:47.513Z,1019.50
2018-09-13T02:45:47.492Z,1019.54
2018-09-13T02:46:47.461Z,1019.54
2018-09-13T02:47:47.439Z,1019.52
2018-09-13T02:48:47.407Z,1019.59
2018-09-13T02:49:47.378Z,1019.56
2018-09-13T02:50:47.360Z,1019.58
2018-09-13T02:51:47.326Z,1019.59
2018-09-13T02:52:47.300Z,1019.58
2018-09-13T02:53:47.273Z,1019.57
2018-09-13T02:54:47.247Z,1019.56
2018-09-13T02:55:47.218Z,1019.59
2018-09-13T02:56:47.190Z,1019.56
2018-09-13T02:57:47.165Z,1019.57
2018-09-13T02:58:47.137Z,1019.58
2018-09-13T02:59:47.111Z,1019.58
2018-09-13T03:00:47.084Z,1019.57
2018-09-13T03:01:47.058Z,1019.52
2018-09-13T03:02:47.034Z,1019.53
2018-09-13T03:03:47.005Z,1019.52
2018-09-13T03:04:46.977Z,1019.56
2018-09-13T03:05:46.950Z,1019.52
2018-09-13T03:06:46.924Z,1019.53
2018-09-13T03:07:46.897Z,1019.54
2018-09-13T03:08:46.880Z,1019.56
2018-09-13T03:09:46.843Z,1019.55
2018-09-13T03:10:46.817Z,1019.57
2018-09-13T03:11:46.790Z,1019.57
2018-09-13T03:12:46.764Z,1019.57
2018-09-13T03:13:46.737Z,1019.55
2018-09-13T03:14:46.760Z,1019.58
2018-09-13T03:15:46.684Z,1019.59
2018-09-13T03:16:46.656Z,1019.57
2018-09-13T03:17:46.629Z,1019.59
2018-09-13T03:18:46.605Z,1019.56
2018-09-13T03:19:46.577Z,1019.59
2018-09-13T03:20:46.550Z,1019.57
2018-09-13T03:21:46.527Z,1019.62
2018-09-13T03:22:46.495Z,1019.64
2018-09-13T03:23:46.470Z,1019.62
2018-09-13T03:24:46.442Z,1019.58
2018-09-13T03:25:46.418Z,1019.63
2018-09-13T03:26:46.400Z,1019.61
2018-09-13T03:27:46.368Z,1019.58
2018-09-13T03:28:46.336Z,1019.61
2018-09-13T03:29:46.308Z,1019.62
2018-09-13T03:30:46.283Z,1019.59
2018-09-13T03:31:46.257Z,1019.55
2018-09-13T03:32:46.230Z,1019.57
2018-09-13T03:33:46.203Z,1019.59
2018-09-13T03:34:46.184Z,1019.59
2018-09-13T03:35:46.149Z,1019.60
2018-09-13T03:36:46.123Z,1019.59
2018-09-13T03:37:46.099Z,1019.63
2018-09-13T03:38:46.070Z,1019.64
2018-09-13T03:39:46.043Z,1019.61
2018-09-13T03:40:46.015Z,1019.62
2018-09-13T03:41:45.988Z,1019.61
2018-09-13T03:42:45.962Z,1019.61
2018-09-13T03:43:45.935Z,1019.60
2018-09-13T03:44:45.910Z,1019.60
2018-09-13T03:45:45.931Z,1019.61
2018-09-13T03:46:45.855Z,1019.59
2018-09-13T03:47:45.829Z,1019.61
2018-09-13T03:48:45.803Z,1019.60
2018-09-13T03:49:45.775Z,1019.57
2018-09-13T03:50:45.748Z,1019.58
2018-09-13T03:51:45.724Z,1019.55
2018-09-13T03:52:45.700Z,1019.52
2018-09-13T03:53:45.669Z,1019.51
2018-09-13T03:54:45.641Z,1019.49
2018-09-13T03:55:45.616Z,1019.57
2018-09-13T03:56:45.588Z,1019.55
2018-09-13T03:57:45.562Z,1019.57
2018-09-13T03:58:45.537Z,1019.55
2018-09-13T03:59:45.508Z,1019.51
2018-09-13T04:00:45.483Z,1019.54
2018-09-13T04:01:45.453Z,1019.53
2018-09-13T04:02:45.433Z,1019.52
2018-09-13T04:03:45.403Z,1019.54
2018-09-13T04:04:45.375Z,1019.51
2018-09-13T04:05:45.359Z,1019.48
2018-09-13T04:06:45.318Z,1019.51
2018-09-13T04:07:45.292Z,1019.51
2018-09-13T04:08:45.265Z,1019.51
2018-09-13T04:09:45.237Z,1019.51
2018-09-13T04:10:45.214Z,1019.50
2018-09-13T04:11:45.185Z,1019.50
2018-09-13T04:12:45.159Z,1019.51
2018-09-13T04:13:45.129Z,1019.54
2018-09-13T04:14:45.107Z,1019.54
2018-09-13T04:15:45.076Z,1019.53
2018-09-13T04:16:45.067Z,1019.53
2018-09-13T04:17:45.021Z,1019.57
2018-09-13T04:18:45.290Z,1019.52
2018-09-13T04:19:44.969Z,1019.51
2018-09-13T04:20:44.940Z,1019.50
2018-09-13T04:21:44.913Z,1019.51
2018-09-13T04:22:44.915Z,1019.54
2018-09-13T04:23:44.863Z,1019.51
2018-09-13T04:24:44.832Z,1019.52
2018-09-13T04:25:44.803Z,1019.49
2018-09-13T04:26:44.777Z,1019.47
2018-09-13T04:27:44.757Z,1019.51
2018-09-13T04:28:44.735Z,1019.49
2018-09-13T04:29:44.696Z,1019.49
2018-09-13T04:30:44.667Z,1019.48
2018-09-13T04:31:44.645Z,1019.48
2018-09-13T04:32:44.614Z,1019.50
2018-09-13T04:33:44.585Z,1019.49
2018-09-13T04:34:44.559Z,1019.46
2018-09-13T04:35:44.624Z,1019.47
2018-09-13T04:36:44.505Z,1019.47
2018-09-13T04:37:44.481Z,1019.44
2018-09-13T04:38:44.450Z,1019.46
2018-09-13T04:39:44.425Z,1019.45
2018-09-13T04:40:44.396Z,1019.47
2018-09-13T04:41:44.373Z,1019.47
2018-09-13T04:42:44.341Z,1019.50
2018-09-13T04:43:44.322Z,1019.53
2018-09-13T04:44:44.287Z,1019.53
2018-09-13T04:45:44.463Z,1019.53
2018-09-13T04:46:44.231Z,1019.50
2018-09-13T04:47:44.204Z,1019.52
2018-09-13T04:48:44.177Z,1019.52
2018-09-13T04:49:44.149Z,1019.53
2018-09-13T04:50:44.123Z,1019.52
2018-09-13T04:51:44.096Z,1019.52
2018-09-13T04:52:44.070Z,1019.48
2018-09-13T04:53:44.049Z,1019.51
2018-09-13T04:54:44.017Z,1019.50
2018-09-13T04:55:43.989Z,1019.45
2018-09-13T04:56:43.959Z,1019.48
2018-09-13T04:57:43.931Z,1019.46
2018-09-13T04:58:43.907Z,1019.54
2018-09-13T04:59:44.130Z,1019.56
2018-09-13T05:00:43.857Z,1019.54
2018-09-13T05:01:43.821Z,1019.55
2018-09-13T05:02:43.795Z,1019.55
2018-09-13T05:03:43.770Z,1019.55
2018-09-13T05:04:43.739Z,1019.59
2018-09-13T05:05:43.712Z,1019.58
2018-09-13T05:06:43.788Z,1019.59
2018-09-13T05:07:43.877Z,1019.62
2018-09-13T05:08:43.633Z,1019.62
2018-09-13T05:09:43.605Z,1019.59
2018-09-13T05:10:43.575Z,1019.62
2018-09-13T05:11:43.548Z,1019.61
2018-09-13T05:12:43.537Z,1019.63
2018-09-13T05:13:43.498Z,1019.62
2018-09-13T05:14:43.468Z,1019.62
2018-09-13T05:15:43.440Z,1019.67
2018-09-13T05:16:43.411Z,1019.63
2018-09-13T05:17:43.388Z,1019.63
2018-09-13T05:18:43.357Z,1019.69
2018-09-13T05:19:43.328Z,1019.63
2018-09-13T05:20:43.301Z,1019.62
2018-09-13T05:21:43.276Z,1019.61
2018-09-13T05:22:43.246Z,1019.59
2018-09-13T05:23:43.219Z,1019.59
2018-09-13T05:24:43.195Z,1019.58
2018-09-13T05:25:43.163Z,1019.56
2018-09-13T05:26:43.139Z,1019.57
2018-09-13T05:27:43.108Z,1019.59
2018-09-13T05:28:43.082Z,1019.57
2018-09-13T05:29:43.054Z,1019.57
2018-09-13T05:30:43.025Z,1019.60
2018-09-13T05:31:43.059Z,1019.66
2018-09-13T05:32:42.982Z,1019.68
2018-09-13T05:33:42.944Z,1019.65
2018-09-13T05:34:42.917Z,1019.69
2018-09-13T05:35:42.889Z,1019.70
2018-09-13T05:36:42.863Z,1019.73
2018-09-13T05:37:42.835Z,1019.79
2018-09-13T05:38:42.833Z,1019.86
2018-09-13T05:39:42.782Z,1019.87
2018-09-13T05:40:42.752Z,1019.94
2018-09-13T05:41:42.928Z,1019.96
2018-09-13T05:42:42.699Z,1019.93
2018-09-13T05:43:42.671Z,1019.98
2018-09-13T05:44:42.773Z,1020.00
2018-09-13T05:45:42.617Z,1020.03
2018-09-13T05:46:42.589Z,1020.05
2018-09-13T05:47:42.563Z,1020.03
2018-09-13T05:48:42.538Z,1019.98
2018-09-13T05:49:42.509Z,1020.03
2018-09-13T05:50:42.484Z,1020.01
2018-09-13T05:51:42.456Z,1020.03
2018-09-13T05:52:42.432Z,1020.04
2018-09-13T05:53:42.405Z,1020.06
2018-09-13T05:54:42.388Z,1020.11
2018-09-13T05:55:42.359Z,1020.09
2018-09-13T05:56:42.324Z,1020.15
2018-09-13T05:57:42.297Z,1020.15
2018-09-13T05:58:42.272Z,1020.20
2018-09-13T05:59:42.246Z,1020.21
2018-09-13T06:00:42.220Z,1020.22
2018-09-13T06:01:42.195Z,1020.28
2018-09-13T06:02:42.169Z,1020.32
2018-09-13T06:03:42.345Z,1020.30
2018-09-13T06:04:42.117Z,1020.33
2018-09-13T06:05:42.091Z,1020.32
2018-09-13T06:06:42.066Z,1020.34
2018-09-13T06:07:42.041Z,1020.35
2018-09-13T06:08:42.016Z,1020.39
2018-09-13T06:09:41.993Z,1020.40
2018-09-13T06:10:41.965Z,1020.46
2018-09-13T06:11:41.940Z,1020.50
2018-09-13T06:12:41.915Z,1020.53
2018-09-13T06:13:42.021Z,1020.61
2018-09-13T06:14:41.866Z,1020.63
2018-09-13T06:15:41.844Z,1020.61
2018-09-13T06:16:41.817Z,1020.65
2018-09-13T06:17:41.791Z,1020.69
2018-09-13T06:18:41.970Z,1020.71
2018-09-13T06:19:41.757Z,1020.79
2018-09-13T06:20:41.921Z,1020.87
2018-09-13T06:21:41.896Z,1020.90
2018-09-13T06:22:41.872Z,1020.92
2018-09-13T06:23:41.848Z,1020.84
2018-09-13T06:25:23.976Z,1020.84
2018-09-13T06:26:23.963Z,1020.80
2018-09-13T06:27:23.928Z,1020.79
2018-09-13T06:28:23.905Z,1020.82
2018-09-13T06:29:23.904Z,1020.85
2018-09-13T06:30:23.654Z,1020.84
2018-09-13T06:31:23.835Z,1020.82
2018-09-13T06:32:23.608Z,1020.89
2018-09-13T06:33:23.788Z,1020.85
2018-09-13T06:34:23.561Z,1020.90
2018-09-13T06:35:23.740Z,1020.95
2018-09-13T06:36:23.606Z,1020.94
2018-09-13T06:37:23.695Z,1020.96
2018-09-13T06:38:23.551Z,1020.97
2018-09-13T06:39:23.447Z,1021.03
2018-09-13T06:40:23.626Z,1021.05
2018-09-13T06:41:23.607Z,1021.06
2018-09-13T06:42:23.614Z,1021.01
2018-09-13T06:43:24.413Z,1021.03
2018-09-13T06:44:23.536Z,1021.04
2018-09-13T06:45:23.514Z,1021.04
2018-09-13T06:46:23.490Z,1021.06
2018-09-13T06:47:23.473Z,1021.08
2018-09-13T06:48:23.454Z,1021.05
2018-09-13T06:49:23.438Z,1021.07
2018-09-13T06:50:23.199Z,1021.05
2018-09-13T06:51:26.204Z,1021.05
2018-09-13T06:52:23.359Z,1021.07
2018-09-13T06:53:23.334Z,1021.06
2018-09-13T06:54:23.314Z,1021.05
2018-09-13T06:55:23.090Z,1021.10
2018-09-13T07:05:31.959Z,1021.44
2018-09-13T07:06:31.034Z,1021.46
2018-09-13T07:07:31.012Z,1021.61
2018-09-13T07:08:30.991Z,1021.66
2018-09-13T07:09:30.968Z,1021.55
2018-09-13T07:10:30.946Z,1021.65
2018-09-13T07:11:30.976Z,1021.65
2018-09-13T07:12:30.913Z,1021.70
2018-09-13T07:13:30.890Z,1021.75
2018-09-13T07:14:31.064Z,1021.73
2018-09-13T07:15:30.849Z,1021.67
2018-09-13T07:16:30.821Z,1021.73
2018-09-13T07:17:30.804Z,1021.74
2018-09-13T07:18:30.781Z,1021.71
2018-09-13T07:19:30.762Z,1021.81
2018-09-13T07:20:30.940Z,1021.87
2018-09-13T07:21:30.718Z,1021.94
2018-09-13T07:22:30.697Z,1021.90
2018-09-13T07:23:30.720Z,1021.97
2018-09-13T07:24:33.496Z,1021.97
2018-09-13T07:25:30.636Z,1021.97
2018-09-13T07:26:30.820Z,1021.99
2018-09-13T07:32:25.880Z,1022.04
2018-09-13T07:33:25.863Z,1022.10
2018-09-13T07:34:25.636Z,1022.12
2018-09-13T07:35:25.617Z,1022.07
2018-09-13T07:36:25.800Z,1022.07
2018-09-13T07:37:25.780Z,1022.14
2018-09-13T07:38:25.558Z,1022.09
2018-09-13T07:40:07.894Z,1022.01
2018-09-13T07:41:07.875Z,1022.00
2018-09-13T07:42:07.657Z,1022.18
2018-09-13T07:43:07.635Z,1022.23
2018-09-13T07:44:07.618Z,1022.20
2018-09-13T07:45:07.594Z,1022.25
2018-09-13T07:46:49.938Z,1022.30
2018-09-13T07:47:49.716Z,1022.01
2018-09-13T07:48:49.693Z,1022.26
2018-09-13T07:49:49.974Z,1022.31
2018-09-13T07:50:49.652Z,1022.39
2018-09-13T07:57:27.882Z,1022.55
2018-09-13T07:58:26.853Z,1022.60
2018-09-13T07:59:26.834Z,1022.66
2018-09-13T08:00:26.815Z,1022.77
2018-09-13T08:04:15.621Z,1021.24
2018-09-13T08:05:15.600Z,1022.57
2018-09-13T08:06:15.380Z,1023.01
2018-09-13T08:07:15.561Z,1023.15
2018-09-13T08:09:01.533Z,1023.10
2018-09-13T08:09:57.684Z,1023.27
2018-09-13T08:10:57.661Z,1023.16
2018-09-13T08:11:57.524Z,1023.02
2018-09-13T08:12:57.427Z,1023.20
2018-09-13T08:18:53.912Z,1023.50
2018-09-13T08:19:52.476Z,1023.51
2018-09-13T08:20:52.657Z,1023.32
2018-09-13T08:21:52.454Z,1023.42
2018-09-13T08:22:52.632Z,1023.89
2018-09-13T08:23:52.607Z,1023.94
2018-09-13T08:24:52.589Z,1024.06
2018-09-13T08:26:34.728Z,1024.05
2018-09-13T08:31:05.492Z,1020.38
2018-09-13T08:32:05.270Z,1020.47
2018-09-13T08:33:47.611Z,1020.42
2018-09-13T08:34:47.881Z,1020.44
2018-09-13T08:35:47.573Z,1023.78
2018-09-13T08:36:47.353Z,1023.68
2018-09-13T08:37:47.333Z,1023.99
2018-09-13T08:38:47.313Z,1024.05
2018-09-13T08:39:47.315Z,1023.92
2018-09-13T08:40:47.281Z,1023.77
2018-09-13T08:41:47.259Z,1023.64
2018-09-13T08:42:47.241Z,1023.62
2018-09-13T08:43:47.231Z,1021.83
2018-09-13T08:44:47.206Z,1022.06
2018-09-13T08:45:47.186Z,1020.59
2018-09-13T08:46:47.167Z,1020.62
2018-09-13T08:47:47.157Z,1020.70
2018-09-13T08:48:47.134Z,1021.63
2018-09-13T08:49:47.115Z,1023.75
2018-09-13T08:50:47.100Z,1023.92
2018-09-13T08:51:47.080Z,1023.12
2018-09-13T08:53:29.420Z,1020.65
2018-09-13T08:54:29.201Z,1020.64
2018-09-13T08:55:29.183Z,1020.58
2018-09-13T08:56:29.165Z,1022.35
2018-09-13T08:57:29.147Z,1021.91
2018-09-13T08:58:29.128Z,1021.67
2018-09-13T08:59:30.328Z,1021.66
2018-09-13T09:00:29.301Z,1021.42
2018-09-13T09:13:25.970Z,1020.34
2018-09-13T09:14:25.728Z,1020.38
2018-09-13T09:15:25.903Z,1020.35
2018-09-13T09:16:25.883Z,1020.31
2018-09-13T09:17:25.862Z,1020.35
2018-09-13T09:18:25.714Z,1020.27
2018-09-13T09:19:25.824Z,1020.26
2018-09-13T09:21:08.981Z,1020.24
2018-09-13T09:22:50.099Z,1020.21
2018-09-13T09:23:50.077Z,1020.22
2018-09-13T09:24:50.056Z,1020.17
2018-09-13T09:25:50.039Z,1020.12
2018-09-13T09:26:50.023Z,1020.13
2018-09-13T09:27:49.793Z,1020.07
2018-09-13T09:28:49.832Z,1020.13
2018-09-13T09:29:50.093Z,1020.12
2018-09-13T09:30:49.935Z,1020.12
2018-09-13T09:31:49.714Z,1020.05
2018-09-13T09:32:49.690Z,1020.07
2018-09-13T09:33:49.672Z,1020.02
2018-09-13T09:34:49.750Z,1020.01
2018-09-13T09:35:49.628Z,1020.03
2018-09-13T09:36:49.605Z,1019.99
2018-09-13T09:38:31.938Z,1020.02
2018-09-13T09:39:31.719Z,1020.02
2018-09-13T09:40:31.924Z,1020.08
2018-09-13T09:42:14.035Z,1020.32
2018-09-13T09:43:14.007Z,1020.30
2018-09-13T09:44:13.794Z,1020.33
2018-09-13T09:45:13.968Z,1020.34
2018-09-13T09:46:13.938Z,1020.30
2018-09-13T09:47:13.726Z,1020.25
2018-09-13T09:48:14.050Z,1020.26
2018-09-13T09:49:13.875Z,1020.32
2018-09-13T09:50:13.895Z,1020.24
2018-09-13T09:51:15.050Z,1020.30
2018-09-13T09:52:14.666Z,1020.23
2018-09-13T09:53:13.795Z,1020.32
2018-09-13T09:54:13.572Z,1020.32
2018-09-13T09:55:13.757Z,1020.36
2018-09-13T09:56:13.656Z,1020.32
2018-09-13T09:57:13.517Z,1020.36
2018-09-13T09:58:13.700Z,1020.36
2018-09-13T09:59:13.682Z,1020.37
2018-09-13T10:03:02.345Z,1020.41
2018-09-13T10:04:02.078Z,1020.37
2018-09-13T10:05:02.049Z,1020.35
2018-09-13T10:06:02.234Z,1020.28
2018-09-13T10:07:02.022Z,1020.32
2018-09-13T10:08:01.997Z,1020.29
2018-09-13T10:09:44.374Z,1020.32
2018-09-13T10:10:44.348Z,1020.31
2018-09-13T10:12:26.461Z,1020.18
2018-09-13T10:13:26.243Z,1020.23
2018-09-13T10:14:26.226Z,1020.21
2018-09-13T10:15:26.589Z,1020.27
2018-09-13T10:16:26.193Z,1020.20
2018-09-13T10:17:26.380Z,1020.17
2018-09-13T10:18:28.782Z,1020.20
2018-09-13T10:19:26.345Z,1020.18
2018-09-13T10:20:26.329Z,1020.14
2018-09-13T10:21:26.363Z,1020.01
2018-09-13T10:22:26.294Z,1020.03
2018-09-13T10:23:26.077Z,1019.96
2018-09-13T10:24:26.063Z,1020.18
2018-09-13T10:25:26.044Z,1020.24
2018-09-13T10:26:26.228Z,1020.16
2018-09-13T10:27:26.010Z,1020.13
2018-09-13T10:28:26.195Z,1020.03
2018-09-13T10:29:26.258Z,1020.06
2018-09-13T10:30:26.163Z,1020.07
2018-09-13T10:31:26.145Z,1020.05
2018-09-13T10:32:25.940Z,1019.80
2018-09-13T10:33:25.913Z,1019.90
2018-09-13T10:34:25.893Z,1019.81
2018-09-13T10:35:25.877Z,1019.82
2018-09-13T10:36:25.865Z,1019.98
2018-09-13T10:37:25.842Z,1020.02
2018-09-13T10:38:25.825Z,1020.04
2018-09-13T10:39:25.816Z,1019.99
2018-09-13T10:40:25.793Z,1019.98
2018-09-13T10:41:25.781Z,1020.02
2018-09-13T10:42:25.760Z,1020.06
2018-09-13T10:43:25.745Z,1020.07
2018-09-13T10:44:25.732Z,1020.12
2018-09-13T10:45:25.914Z,1020.02
2018-09-13T10:46:25.899Z,1020.12
2018-09-13T10:47:25.691Z,1019.84
2018-09-13T10:48:25.673Z,1020.16
2018-09-13T10:49:25.660Z,1020.22
2018-09-13T10:50:25.646Z,1020.23
2018-09-13T10:51:25.822Z,1020.26
2018-09-13T10:52:25.906Z,1020.26
2018-09-13T10:53:25.787Z,1020.32
2018-09-13T10:54:26.834Z,1020.33
2018-09-13T10:55:28.536Z,1020.26
2018-09-13T10:56:25.549Z,1019.76
2018-09-13T10:57:25.523Z,1020.28
2018-09-13T10:58:25.520Z,1020.27
2018-09-13T10:59:25.494Z,1020.36
2018-09-13T11:00:25.478Z,1020.39
2018-09-13T11:01:25.459Z,1019.80
2018-09-13T11:02:25.442Z,1019.71
2018-09-13T11:03:25.428Z,1019.64
2018-09-13T11:04:32.484Z,1019.62
2018-09-13T11:05:25.598Z,1019.64
2018-09-13T11:06:28.205Z,1019.62
2018-09-13T11:07:25.565Z,1020.50
2018-09-13T11:08:25.552Z,1019.69
2018-09-13T11:09:25.538Z,1021.23
2018-09-13T11:10:25.364Z,1021.28
2018-09-13T11:11:25.454Z,1021.32
2018-09-13T11:12:25.684Z,1021.20
2018-09-13T11:13:26.080Z,1021.17
2018-09-13T11:15:49.761Z,1021.15
2018-09-13T11:16:49.748Z,1021.08
2018-09-13T11:17:49.729Z,1021.09
2018-09-13T11:18:49.712Z,1021.15
2018-09-13T11:19:49.696Z,1021.09
2018-09-13T11:20:49.680Z,1021.06
2018-09-13T11:21:49.621Z,1021.04
2018-09-13T11:22:49.649Z,1021.04
2018-09-13T11:23:49.633Z,1021.06
2018-09-13T11:24:49.417Z,1020.95
2018-09-13T11:25:49.602Z,1020.94
2018-09-13T11:26:49.396Z,1020.90
2018-09-13T11:27:49.577Z,1020.86
2018-09-13T11:28:49.573Z,1020.91
2018-09-13T11:30:31.718Z,1020.80
2018-09-13T11:31:34.309Z,1020.76
2018-09-13T11:32:31.671Z,1020.74
2018-09-13T11:38:26.773Z,1020.47
2018-09-13T11:41:33.234Z,1020.55
2018-09-13T11:42:33.219Z,1020.41
2018-09-13T11:43:33.004Z,1020.39
2018-09-13T11:44:33.191Z,1020.39
2018-09-13T11:45:33.176Z,1020.36
2018-09-13T11:47:15.321Z,1020.41
2018-09-13T11:51:03.945Z,1020.35
2018-09-13T11:52:03.729Z,1020.29
2018-09-13T11:53:47.289Z,1020.22
2018-09-13T11:54:46.062Z,1020.15
2018-09-13T11:55:46.092Z,1020.14
2018-09-13T11:56:46.033Z,1020.09
2018-09-13T11:57:45.823Z,1020.12
2018-09-13T11:58:46.004Z,1020.11
2018-09-13T11:59:45.991Z,1020.12
2018-09-13T12:01:28.139Z,1019.93
2018-09-13T12:03:10.280Z,1020.03
2018-09-13T12:04:10.266Z,1020.09
2018-09-13T12:05:10.251Z,1020.07
2018-09-13T12:06:55.017Z,1020.11
2018-09-13T12:07:55.003Z,1020.18
2018-09-13T12:09:34.579Z,1020.30
2018-09-13T12:11:16.671Z,1020.36
2018-09-13T12:12:16.656Z,1020.33
2018-09-13T12:13:16.641Z,1020.35
2018-09-13T12:14:16.628Z,1020.35
2018-09-13T12:15:16.418Z,1019.70
2018-09-13T12:16:16.603Z,1019.42
2018-09-13T12:17:16.381Z,1020.42
2018-09-13T12:18:16.596Z,1019.34
2018-09-13T12:19:58.713Z,1019.44
2018-09-13T12:21:40.862Z,1019.35
2018-09-13T12:22:40.841Z,1019.31
2018-09-13T12:23:40.829Z,1019.36
2018-09-13T12:24:41.213Z,1019.41
2018-09-13T12:25:40.792Z,1019.47
2018-09-13T12:26:43.194Z,1019.41
2018-09-13T12:32:35.897Z,1019.23
2018-09-13T12:35:00.147Z,1019.10
2018-09-13T12:36:00.128Z,1019.04
2018-09-13T12:36:59.907Z,1018.94
2018-09-13T12:40:06.564Z,1019.00
2018-09-13T12:46:44.088Z,1018.98
2018-09-13T12:47:44.367Z,1018.96
2018-09-13T12:49:25.904Z,1018.90
2018-09-13T12:52:32.332Z,1018.85
2018-09-13T12:53:32.109Z,1018.98
2018-09-13T12:54:32.091Z,1018.84
2018-09-13T12:55:32.067Z,1018.84
2018-09-13T13:07:04.553Z,1019.97
2018-09-13T13:08:04.534Z,1018.96
2018-09-13T13:09:04.308Z,1019.24
2018-09-13T13:10:04.289Z,1020.62
2018-09-13T13:11:04.268Z,1021.56
2018-09-13T13:12:04.451Z,1022.11
2018-09-13T13:13:04.232Z,1022.34
2018-09-13T13:14:04.213Z,1023.08
2018-09-13T13:15:04.196Z,1018.87
2018-09-13T13:16:04.175Z,1018.81
2018-09-13T13:17:04.208Z,1018.83
2018-09-13T13:18:04.136Z,1018.75
2018-09-13T13:19:04.118Z,1018.73
2018-09-13T13:20:04.099Z,1018.73
2018-09-13T13:21:04.086Z,1018.69
2018-09-13T13:22:04.063Z,1018.66
2018-09-13T13:23:04.044Z,1018.64
2018-09-13T13:24:04.024Z,1018.72
2018-09-13T13:25:04.010Z,1019.17
2018-09-13T13:26:03.985Z,1019.39
2018-09-13T13:27:03.982Z,1018.73
2018-09-13T13:28:03.947Z,1018.70
2018-09-13T13:29:03.933Z,1018.67
2018-09-13T13:30:03.908Z,1018.69
2018-09-13T13:31:03.889Z,1018.62
2018-09-13T13:32:04.074Z,1018.61
2018-09-13T13:33:03.849Z,1018.63
2018-09-13T13:34:04.032Z,1018.57
2018-09-13T13:35:03.809Z,1018.58
2018-09-13T13:36:03.788Z,1018.55
2018-09-13T13:37:03.971Z,1018.62
2018-09-13T13:38:03.957Z,1018.59
2018-09-13T13:39:03.728Z,1018.60
2018-09-13T13:40:03.910Z,1018.52
2018-09-13T13:41:03.917Z,1018.55
2018-09-13T13:42:03.868Z,1018.58
2018-09-13T13:43:03.846Z,1018.54
2018-09-13T13:44:03.893Z,1018.53
2018-09-13T13:45:03.615Z,1018.48
2018-09-13T13:46:03.584Z,1018.47